CDT,Max TemperatureF,Mean TemperatureF,Min TemperatureF,Max Dew PointF,MeanDew PointF,Min DewpointF,Max Humidity, Mean Humidity, Min Humidity, Max Sea Level PressureIn, Mean Sea Level PressureIn, Min Sea Level PressureIn, Max VisibilityMiles, Mean VisibilityMiles, Min VisibilityMiles, Max Wind SpeedMPH, Mean Wind SpeedMPH, Max Gust SpeedMPH,PrecipitationIn, CloudCover, Events, WindDirDegrees
2010-10-1,78,60,43,54,46,41,97,70,28,30.23,30.16,30.09,10,10,10,6,1,,0.00,0,,202
2010-10-2,64,53,41,49,41,35,89,61,35,30.39,30.29,30.09,10,10,10,17,8,24,0.00,0,,22
2010-10-3,64,48,33,41,35,33,100,75,31,30.47,30.40,30.32,10,8,0,7,1,,0.00,1,Fog,113
2010-10-4,69,53,37,41,37,35,89,59,30,30.38,30.32,30.25,10,10,10,15,4,20,0.00,0,,169
2010-10-5,75,58,41,46,42,39,93,58,31,30.34,30.29,30.23,10,10,10,13,5,20,0.00,0,,190
2010-10-6,84,67,50,55,48,42,90,58,32,30.26,30.19,30.10,10,10,10,10,3,,0.00,1,,225
2010-10-7,82,66,50,52,47,42,96,63,27,30.25,30.17,30.10,10,9,2,9,2,,0.00,0,,71
2010-10-8,90,70,50,53,49,44,93,55,20,30.09,30.01,29.94,10,10,4,18,4,25,0.00,0,,198
2010-10-9,82,65,48,50,46,44,86,55,27,29.99,29.95,29.91,10,10,10,12,5,17,0.00,0,,213
2010-10-10,75,59,43,56,48,41,97,76,34,29.99,29.94,29.87,10,9,2,21,2,25,0.01,1,Rain,234
2010-10-11,64,58,51,57,55,50,97,87,70,29.90,29.86,29.82,10,9,3,9,1,,0.16,6,Rain-Thunderstorm,71
2010-10-12,78,64,50,58,51,43,100,73,36,30.22,30.02,29.90,10,8,2,10,3,16,0.00,1,,360
2010-10-13,71,56,39,43,36,28,89,51,22,30.38,30.32,30.24,10,10,10,8,5,22,0.00,1,,345
2010-10-14,81,58,35,44,37,33,96,61,20,30.32,30.17,30.03,10,10,10,17,3,24,0.00,0,,242
2010-10-15,78,58,37,44,38,33,93,58,19,30.20,30.10,30.03,10,10,9,9,2,,0.00,0,,179
2010-10-16,82,68,55,53,45,41,67,47,29,30.11,30.02,29.98,10,10,10,10,6,,0.00,0,,236
2010-10-17,78,62,48,50,41,33,80,50,32,30.14,30.04,29.92,10,10,10,13,6,,0.00,0,,61
2010-10-18,71,59,46,47,39,32,90,57,25,30.08,30.00,29.93,10,10,10,18,4,23,0.00,0,,31
2010-10-19,68,56,44,42,36,29,83,59,23,30.13,30.05,29.98,10,10,5,5,1,,0.00,1,,230
2010-10-20,78,57,37,41,36,29,89,54,18,30.06,30.00,29.94,10,10,10,10,3,21,0.00,0,,254
2010-10-21,75,56,37,42,38,35,97,56,24,30.08,30.01,29.95,10,10,10,13,3,17,0.00,1,,95
2010-10-22,73,62,52,63,55,39,100,77,48,29.94,29.86,29.78,10,8,1,16,6,24,0.80,5,Rain-Thunderstorm,169
2010-10-23,77,69,59,63,60,51,94,80,45,29.80,29.73,29.63,10,8,1,23,10,33,0.39,4,Rain-Thunderstorm,196
2010-10-24,72,62,48,55,52,47,96,79,48,29.72,29.67,29.58,10,10,10,16,9,21,0.00,4,,227
2010-10-25,73,61,50,54,51,48,93,70,44,29.57,29.26,29.03,10,10,10,21,6,33,0.01,1,Rain,219
2010-10-26,68,57,46,44,32,24,71,45,20,29.64,29.46,29.26,10,10,10,21,12,30,0.00,1,,252
2010-10-27,66,50,37,31,26,20,73,44,18,30.24,29.91,29.65,10,10,10,21,9,41,0.00,1,,257
2010-10-28,63,46,30,32,25,18,85,50,24,30.51,30.42,30.26,10,10,8,16,3,22,0.00,0,,304
2010-10-29,71,50,30,34,29,27,92,53,20,30.43,30.22,29.98,10,10,10,22,5,32,0.00,0,,203
2010-10-30,72,56,39,39,34,31,76,48,27,29.98,29.92,29.86,10,10,10,12,6,,0.00,0,,146
2010-10-31,61,52,44,38,37,35,76,61,42,30.14,30.03,29.96,10,10,10,21,11,26,0.00,0,,52